Time;durP1;ratioP1;P1;durP2;ratioP2;P2;SDS_P1;SDS_P2;PMS_P1;PMS_P2;Temp;Humidity;BMP_temperature;BMP_pressure;BME280_temperature;BME280_humidity;BME280_pressure;Samples;Min_cycle;Max_cycle;Signal;HPM_P1;HPM_P2
2022/12/12 00:01:15;;;;;;;1.15;1.13;;;;;;;;;;5055327;28;20053;-92
2022/12/12 00:03:42;;;;;;;1.20;1.20;;;;;;;;;;5055061;28;20604;-93
2022/12/12 00:06:10;;;;;;;1.63;1.55;;;;;;;;;;5035039;28;20456;-92
2022/12/12 00:08:36;;;;;;;2.60;2.47;;;;;;;;;;5034634;28;20447;-92
2022/12/12 00:11:03;;;;;;;2.25;2.05;;;;;;;;;;5034928;28;20054;-92
2022/12/12 00:13:29;;;;;;;1.00;1.00;;;;;;;;;;5050146;28;20049;-91
2022/12/12 00:15:56;;;;;;;2.85;2.75;;;;;;;;;;5055136;28;20506;-93
2022/12/12 00:18:22;;;;;;;1.65;1.58;;;;;;;;;;5055134;28;20049;-93
2022/12/12 00:20:50;;;;;;;2.10;2.00;;;;;;;;;;5054545;28;20053;-92
2022/12/12 00:23:18;;;;;;;2.85;2.22;;;;;;;;;;5055019;28;20041;-92
2022/12/12 00:25:45;;;;;;;1.40;1.30;;;;;;;;;;5054267;28;20095;-92
2022/12/12 00:28:11;;;;;;;0.90;0.90;;;;;;;;;;5054730;28;20053;-93
2022/12/12 00:30:38;;;;;;;1.42;1.33;;;;;;;;;;5054877;28;20045;-93
2022/12/12 00:33:04;;;;;;;1.50;1.40;;;;;;;;;;5054512;28;20053;-92
2022/12/12 00:35:31;;;;;;;2.60;2.40;;;;;;;;;;5040727;28;20495;-92
2022/12/12 00:37:57;;;;;;;1.25;1.23;;;;;;;;;;5034045;28;20087;-91
2022/12/12 00:40:25;;;;;;;0.77;0.77;;;;;;;;;;5033879;28;20556;-91
2022/12/12 00:42:51;;;;;;;1.55;1.45;;;;;;;;;;5034010;28;20053;-91
2022/12/12 00:45:18;;;;;;;1.10;1.10;;;;;;;;;;5034158;28;20458;-91
2022/12/12 00:47:44;;;;;;;1.60;1.50;;;;;;;;;;5034260;28;20057;-92
2022/12/12 00:50:11;;;;;;;1.20;1.17;;;;;;;;;;5034133;28;20622;-92
2022/12/12 00:52:37;;;;;;;0.73;0.73;;;;;;;;;;5034273;28;20103;-92
2022/12/12 00:55:04;;;;;;;1.42;1.23;;;;;;;;;;5034014;28;20461;-92
2022/12/12 00:57:32;;;;;;;1.10;1.08;;;;;;;;;;5034097;28;20050;-92
2022/12/12 00:59:59;;;;;;;1.25;1.25;;;;;;;;;;5033817;28;20041;-92
2022/12/12 01:02:25;;;;;;;1.42;1.40;;;;;;;;;;5034143;28;20080;-91
2022/12/12 01:04:52;;;;;;;1.88;1.77;;;;;;;;;;5040286;28;20094;-91
2022/12/12 01:07:18;;;;;;;2.10;2.00;;;;;;;;;;5053532;28;20052;-91
2022/12/12 01:09:45;;;;;;;1.98;1.35;;;;;;;;;;5048357;28;20037;-92
2022/12/12 01:12:11;;;;;;;4.57;2.38;;;;;;;;;;5032926;28;20111;-92
2022/12/12 01:14:39;;;;;;;1.35;1.25;;;;;;;;;;5033674;28;20045;-92
2022/12/12 01:17:05;;;;;;;2.15;2.05;;;;;;;;;;5033664;28;20564;-90
2022/12/12 01:19:32;;;;;;;1.65;1.55;;;;;;;;;;5032657;28;20100;-93
2022/12/12 01:21:58;;;;;;;1.65;1.55;;;;;;;;;;5033869;28;20099;-93
2022/12/12 01:24:25;;;;;;;1.20;1.20;;;;;;;;;;5033514;28;20103;-92
2022/12/12 01:26:51;;;;;;;1.10;1.08;;;;;;;;;;5033419;28;20415;-92
2022/12/12 01:29:18;;;;;;;0.85;0.85;;;;;;;;;;5033604;28;20400;-94
2022/12/12 01:31:46;;;;;;;1.73;1.63;;;;;;;;;;5034342;28;20103;-94
2022/12/12 01:34:12;;;;;;;1.52;1.42;;;;;;;;;;5034143;28;20045;-94
2022/12/12 01:36:39;;;;;;;1.15;1.13;;;;;;;;;;5034237;28;20461;-94
2022/12/12 01:39:05;;;;;;;2.00;1.90;;;;;;;;;;5034105;28;20061;-92
2022/12/12 01:41:32;;;;;;;1.15;1.15;;;;;;;;;;5051561;28;20498;-92
2022/12/12 01:44:00;;;;;;;1.00;0.95;;;;;;;;;;5059899;28;20048;-92
2022/12/12 01:46:45;;;;;;;1.75;1.65;;;;;;;;;;5041203;28;20049;-92
2022/12/12 01:49:15;;;;;;;1.60;1.55;;;;;;;;;;5034168;28;20104;-92
2022/12/12 01:51:43;;;;;;;1.25;1.23;;;;;;;;;;5039968;28;20049;-92
2022/12/12 01:54:11;;;;;;;0.73;0.73;;;;;;;;;;5073189;28;20109;-92
2022/12/12 01:56:39;;;;;;;1.23;1.20;;;;;;;;;;5036190;28;20042;-93
2022/12/12 01:59:07;;;;;;;1.95;1.85;;;;;;;;;;5038250;28;20106;-91
2022/12/12 02:01:34;;;;;;;0.88;0.88;;;;;;;;;;5040766;28;20452;-92
2022/12/12 02:04:02;;;;;;;0.68;0.52;;;;;;;;;;5045186;28;20045;-92
2022/12/12 02:06:30;;;;;;;1.17;1.17;;;;;;;;;;5041690;28;20083;-92
2022/12/12 02:08:59;;;;;;;1.48;1.40;;;;;;;;;;5039903;28;20049;-92
2022/12/12 02:11:26;;;;;;;0.93;0.93;;;;;;;;;;5053167;28;20057;-92
2022/12/12 02:13:53;;;;;;;1.15;1.13;;;;;;;;;;5052696;28;20045;-91
2022/12/12 02:16:24;;;;;;;1.40;1.25;;;;;;;;;;5052400;28;20491;-92
2022/12/12 02:18:55;;;;;;;0.75;0.75;;;;;;;;;;5053115;28;20049;-92
2022/12/12 02:21:26;;;;;;;0.95;0.95;;;;;;;;;;5038605;28;20069;-92
2022/12/12 02:23:52;;;;;;;;;;;;;;;;;;5032546;28;20462;-92
2022/12/12 02:26:42;;;;;;;1.08;1.08;;;;;;;;;;5032898;28;19921;-93
2022/12/12 02:29:08;;;;;;;;;;;;;;;;;;5033511;28;20045;-93
2022/12/12 02:31:40;;;;;;;1.67;1.67;;;;;;;;;;5049148;28;19947;-92
2022/12/12 02:34:09;;;;;;;0.77;0.77;;;;;;;;;;5053015;28;20048;-91
2022/12/12 02:36:43;;;;;;;0.68;0.65;;;;;;;;;;5053153;28;20114;-92
2022/12/12 02:39:12;;;;;;;1.20;1.20;;;;;;;;;;5052501;28;20057;-92
2022/12/12 02:41:40;;;;;;;2.17;2.08;;;;;;;;;;5052449;28;20860;-92
2022/12/12 02:44:14;;;;;;;0.68;0.68;;;;;;;;;;5053076;28;20122;-93
2022/12/12 02:46:46;;;;;;;1.13;1.02;;;;;;;;;;5052494;28;20045;-92
2022/12/12 02:49:14;;;;;;;0.88;0.88;;;;;;;;;;5052626;28;20103;-92
2022/12/12 02:51:42;;;;;;;1.10;1.10;;;;;;;;;;5052864;28;20094;-92
2022/12/12 02:54:13;;;;;;;1.30;1.23;;;;;;;;;;5053017;28;20053;-91
2022/12/12 02:56:45;;;;;;;1.25;1.20;;;;;;;;;;5037638;28;20045;-92
2022/12/12 02:59:14;;;;;;;0.52;0.52;;;;;;;;;;5032771;28;20553;-93
2022/12/12 03:01:47;;;;;;;3.05;2.75;;;;;;;;;;5040943;28;20048;-91
2022/12/12 03:09:57;;;;;;;1.20;1.17;;;;;;;;;;5067853;28;20056;-92
2022/12/12 03:12:27;;;;;;;1.52;1.45;;;;;;;;;;5032838;28;20115;-91
2022/12/12 03:14:57;;;;;;;0.95;0.77;;;;;;;;;;5032555;28;20053;-91
2022/12/12 03:17:27;;;;;;;1.45;1.35;;;;;;;;;;5032223;28;20535;-92
2022/12/12 03:19:57;;;;;;;1.92;1.63;;;;;;;;;;5043464;28;20045;-90
2022/12/12 03:22:25;;;;;;;1.67;1.58;;;;;;;;;;5051656;28;20062;-91
2022/12/12 03:24:54;;;;;;;2.38;2.17;;;;;;;;;;5051460;28;20469;-90
2022/12/12 03:27:23;;;;;;;4.05;3.70;;;;;;;;;;5051582;28;20053;-91
2022/12/12 03:29:53;;;;;;;2.00;1.85;;;;;;;;;;5051539;28;20053;-91
2022/12/12 03:32:23;;;;;;;2.42;1.77;;;;;;;;;;5051257;28;20048;-91
2022/12/12 03:34:52;;;;;;;2.90;2.70;;;;;;;;;;5052788;28;20564;-91
2022/12/12 03:37:20;;;;;;;1.52;1.42;;;;;;;;;;5051839;28;20061;-91
2022/12/12 03:39:50;;;;;;;1.30;1.27;;;;;;;;;;5054998;28;20053;-91
2022/12/12 03:42:21;;;;;;;1.73;1.63;;;;;;;;;;5055134;28;20522;-91
2022/12/12 03:44:49;;;;;;;1.40;1.35;;;;;;;;;;5055353;28;20124;-91
2022/12/12 03:47:18;;;;;;;0.47;0.47;;;;;;;;;;5037823;28;20116;-91
2022/12/12 03:49:46;;;;;;;3.92;1.85;;;;;;;;;;5035028;28;20049;-91
2022/12/12 03:52:16;;;;;;;1.08;1.05;;;;;;;;;;5040783;28;20259;-90
2022/12/12 03:54:47;;;;;;;2.13;2.03;;;;;;;;;;5040275;28;20046;-91
2022/12/12 03:57:17;;;;;;;0.88;0.88;;;;;;;;;;5036138;28;20045;-92
2022/12/12 03:59:44;;;;;;;2.08;1.98;;;;;;;;;;5035072;28;20053;-92
2022/12/12 04:02:14;;;;;;;1.60;1.55;;;;;;;;;;5035361;28;20049;-92
2022/12/12 04:04:44;;;;;;;0.90;0.90;;;;;;;;;;5035013;28;20053;-91
2022/12/12 04:07:13;;;;;;;1.25;1.23;;;;;;;;;;5035158;28;20045;-91
2022/12/12 04:15:22;;;;;;;1.50;1.02;;;;;;;;;;5054623;28;20055;-91
2022/12/12 04:17:57;;;;;;;1.15;1.15;;;;;;;;;;5034721;28;20127;-91
2022/12/12 04:23:15;;;;;;;2.22;1.23;;;;;;;;;;5034629;28;20064;-91
2022/12/12 04:28:27;;;;;;;4.47;1.15;;;;;;;;;;5033370;28;20056;-91
2022/12/12 04:30:54;;;;;;;1.33;1.27;;;;;;;;;;5037612;28;20494;-91
2022/12/12 04:33:23;;;;;;;1.85;1.75;;;;;;;;;;5054670;28;20106;-91
2022/12/12 04:35:51;;;;;;;1.42;1.40;;;;;;;;;;5051844;28;20054;-91
2022/12/12 04:38:20;;;;;;;2.80;2.65;;;;;;;;;;5034573;28;20061;-92
2022/12/12 04:40:48;;;;;;;2.60;2.50;;;;;;;;;;5036026;28;20057;-91
2022/12/12 04:43:17;;;;;;;1.27;1.25;;;;;;;;;;5054177;28;20044;-91
2022/12/12 04:45:46;;;;;;;2.00;1.52;;;;;;;;;;5052089;28;20080;-90
2022/12/12 04:48:15;;;;;;;3.20;1.73;;;;;;;;;;5033684;28;20049;-90
2022/12/12 04:50:43;;;;;;;2.25;2.13;;;;;;;;;;5034015;28;20045;-91
2022/12/12 04:53:11;;;;;;;1.20;1.17;;;;;;;;;;5034369;28;20053;-91
2022/12/12 04:55:39;;;;;;;1.50;1.42;;;;;;;;;;5033921;28;20519;-90
2022/12/12 04:58:07;;;;;;;3.38;3.10;;;;;;;;;;5033822;28;20487;-90
2022/12/12 05:00:38;;;;;;;1.92;1.30;;;;;;;;;;5033515;28;20042;-90
2022/12/12 05:03:09;;;;;;;1.05;1.02;;;;;;;;;;5033719;28;20461;-91
2022/12/12 05:05:38;;;;;;;1.10;1.10;;;;;;;;;;5033652;28;20116;-91
2022/12/12 05:08:07;;;;;;;6.28;2.35;;;;;;;;;;5033856;28;20053;-90
2022/12/12 05:10:33;;;;;;;1.38;1.27;;;;;;;;;;5033645;28;20530;-90
2022/12/12 05:13:00;;;;;;;2.63;2.53;;;;;;;;;;5033475;28;20565;-90
2022/12/12 05:15:28;;;;;;;2.20;2.08;;;;;;;;;;5042807;28;20056;-91
2022/12/12 05:17:58;;;;;;;2.35;2.22;;;;;;;;;;5035944;28;20103;-90
2022/12/12 05:20:26;;;;;;;2.42;1.70;;;;;;;;;;5033343;28;20487;-92
2022/12/12 05:22:52;;;;;;;1.42;1.33;;;;;;;;;;5050379;28;20045;-92
2022/12/12 05:25:19;;;;;;;1.48;1.38;;;;;;;;;;5053226;28;20049;-92
2022/12/12 05:27:45;;;;;;;2.55;2.45;;;;;;;;;;5037220;28;20103;-91
2022/12/12 05:30:12;;;;;;;3.80;2.90;;;;;;;;;;5033319;28;20045;-91
2022/12/12 05:32:39;;;;;;;1.67;1.48;;;;;;;;;;5033745;28;20049;-91
2022/12/12 05:35:06;;;;;;;2.28;2.08;;;;;;;;;;5033098;28;20810;-91
2022/12/12 05:37:34;;;;;;;2.42;1.45;;;;;;;;;;5046472;28;20502;-91
2022/12/12 05:40:00;;;;;;;2.08;1.98;;;;;;;;;;5053112;28;20490;-93
2022/12/12 05:42:27;;;;;;;1.23;1.15;;;;;;;;;;5053908;28;20056;-93
2022/12/12 05:44:53;;;;;;;1.38;1.35;;;;;;;;;;5053588;28;20051;-93
2022/12/12 05:47:20;;;;;;;1.67;1.58;;;;;;;;;;5052077;28;20041;-92
2022/12/12 05:49:46;;;;;;;2.05;1.73;;;;;;;;;;5053239;28;20048;-92
2022/12/12 05:52:13;;;;;;;9.00;1.80;;;;;;;;;;5043312;28;20564;-92
2022/12/12 05:54:41;;;;;;;1.70;1.60;;;;;;;;;;5033638;28;20053;-92
2022/12/12 05:57:08;;;;;;;2.25;2.15;;;;;;;;;;5033066;28;20049;-92
2022/12/12 05:59:34;;;;;;;1.40;1.38;;;;;;;;;;5038329;28;20045;-92
2022/12/12 06:02:00;;;;;;;0.93;0.93;;;;;;;;;;5046353;28;20376;-92
2022/12/12 06:04:27;;;;;;;0.82;0.82;;;;;;;;;;5053354;28;20103;-94
2022/12/12 06:06:53;;;;;;;0.70;0.70;;;;;;;;;;5053847;28;20052;-94
2022/12/12 06:09:20;;;;;;;2.45;2.35;;;;;;;;;;5053301;28;20045;-93
2022/12/12 06:11:48;;;;;;;3.08;2.88;;;;;;;;;;5053300;28;20052;-93
2022/12/12 06:14:15;;;;;;;1.65;1.55;;;;;;;;;;5053349;28;20053;-93
2022/12/12 06:16:41;;;;;;;1.05;1.05;;;;;;;;;;5053162;28;20049;-93
2022/12/12 06:19:08;;;;;;;2.35;2.25;;;;;;;;;;5053200;28;20118;-93
2022/12/12 06:21:34;;;;;;;1.52;1.48;;;;;;;;;;5053024;28;20094;-93
2022/12/12 06:24:01;;;;;;;2.50;2.35;;;;;;;;;;5051361;28;20049;-93
2022/12/12 06:26:27;;;;;;;4.30;3.65;;;;;;;;;;5052822;28;20045;-93
2022/12/12 06:28:55;;;;;;;1.58;1.48;;;;;;;;;;5052976;28;20114;-93
2022/12/12 06:31:23;;;;;;;1.10;0.93;;;;;;;;;;5053116;28;20053;-93
2022/12/12 06:33:50;;;;;;;2.92;2.75;;;;;;;;;;5053071;28;20110;-93
2022/12/12 06:36:22;;;;;;;4.68;2.88;;;;;;;;;;5052871;28;20056;-93
2022/12/12 06:38:49;;;;;;;2.20;2.10;;;;;;;;;;5032503;28;20084;-93
2022/12/12 06:41:15;;;;;;;2.20;1.92;;;;;;;;;;5036227;28;20132;-94
2022/12/12 06:43:42;;;;;;;1.38;1.33;;;;;;;;;;5072956;28;20456;-93
2022/12/12 06:46:11;;;;;;;0.82;0.82;;;;;;;;;;5072871;28;20169;-93
2022/12/12 06:48:38;;;;;;;2.28;2.17;;;;;;;;;;5041424;28;20100;-92
2022/12/12 06:51:05;;;;;;;0.90;0.90;;;;;;;;;;5040223;28;20421;-94
2022/12/12 06:53:32;;;;;;;2.78;2.67;;;;;;;;;;5065360;28;20049;-93
2022/12/12 06:55:59;;;;;;;1.75;1.65;;;;;;;;;;5061058;28;20542;-93
2022/12/12 06:58:25;;;;;;;1.27;1.27;;;;;;;;;;5052472;28;20741;-93
2022/12/12 07:00:52;;;;;;;2.80;1.88;;;;;;;;;;5052455;28;20106;-93
2022/12/12 07:03:20;;;;;;;2.03;1.92;;;;;;;;;;5052427;28;20045;-93
2022/12/12 07:05:47;;;;;;;1.83;1.80;;;;;;;;;;5052705;28;20079;-93
2022/12/12 07:08:13;;;;;;;1.90;1.80;;;;;;;;;;5038664;28;20045;-93
2022/12/12 07:10:40;;;;;;;2.95;2.58;;;;;;;;;;5044277;28;20037;-93
2022/12/12 07:13:07;;;;;;;3.03;2.80;;;;;;;;;;5036630;28;20053;-94
2022/12/12 07:15:33;;;;;;;2.38;2.25;;;;;;;;;;5036655;28;20189;-93
2022/12/12 07:18:00;;;;;;;4.93;2.10;;;;;;;;;;5047679;28;20498;-93
2022/12/12 07:20:28;;;;;;;2.83;2.63;;;;;;;;;;5056193;28;20045;-93
2022/12/12 07:22:54;;;;;;;1.52;1.42;;;;;;;;;;5056379;28;20107;-93
2022/12/12 07:25:20;;;;;;;4.03;3.38;;;;;;;;;;5056147;28;20053;-93
2022/12/12 07:27:47;;;;;;;2.42;2.33;;;;;;;;;;5056120;28;20110;-93
2022/12/12 07:30:14;;;;;;;2.55;2.38;;;;;;;;;;5055941;28;20545;-93
2022/12/12 07:32:40;;;;;;;3.05;2.85;;;;;;;;;;5055860;28;20049;-94
2022/12/12 07:35:07;;;;;;;3.20;2.92;;;;;;;;;;5056038;28;20049;-93
2022/12/12 07:37:35;;;;;;;4.65;4.05;;;;;;;;;;5055358;28;20045;-94
2022/12/12 07:40:02;;;;;;;2.78;2.58;;;;;;;;;;5055796;28;20094;-93
2022/12/12 07:42:28;;;;;;;3.80;3.20;;;;;;;;;;5055465;28;20443;-93
2022/12/12 07:44:54;;;;;;;3.22;2.95;;;;;;;;;;5055827;28;20049;-93
2022/12/12 07:47:21;;;;;;;1.38;1.27;;;;;;;;;;5055686;28;20049;-93
2022/12/12 07:49:47;;;;;;;2.25;2.15;;;;;;;;;;5057903;28;20102;-93
2022/12/12 07:52:14;;;;;;;1.95;1.85;;;;;;;;;;5071959;28;20045;-93
2022/12/12 07:54:42;;;;;;;3.53;3.05;;;;;;;;;;5055368;28;20490;-93
2022/12/12 07:57:09;;;;;;;2.78;2.58;;;;;;;;;;5052881;28;20143;-93
2022/12/12 07:59:35;;;;;;;3.22;2.55;;;;;;;;;;5035677;28;20107;-94
2022/12/12 08:02:02;;;;;;;3.15;2.25;;;;;;;;;;5035568;28;20049;-94
2022/12/12 08:04:28;;;;;;;3.67;3.38;;;;;;;;;;5035589;28;20618;-92
2022/12/12 08:06:56;;;;;;;4.20;3.88;;;;;;;;;;5042372;28;20050;-94
2022/12/12 08:09:23;;;;;;;5.85;5.45;;;;;;;;;;5039889;28;20053;-94
2022/12/12 08:11:50;;;;;;;4.10;3.78;;;;;;;;;;5035499;28;20042;-94
2022/12/12 08:14:17;;;;;;;5.53;5.18;;;;;;;;;;5035631;28;20118;-93
2022/12/12 08:16:43;;;;;;;2.47;2.35;;;;;;;;;;5035269;28;20092;-94
2022/12/12 08:19:10;;;;;;;4.45;3.95;;;;;;;;;;5035432;28;20107;-94
2022/12/12 08:21:36;;;;;;;4.88;3.17;;;;;;;;;;5034959;28;20041;-94
2022/12/12 08:24:03;;;;;;;3.85;3.55;;;;;;;;;;5035456;28;20096;-94
2022/12/12 08:26:30;;;;;;;4.30;4.00;;;;;;;;;;5035363;28;20045;-94
2022/12/12 08:28:58;;;;;;;3.35;3.15;;;;;;;;;;5034988;28;20049;-93
2022/12/12 08:31:25;;;;;;;3.28;3.10;;;;;;;;;;5035062;28;20045;-92
2022/12/12 08:33:51;;;;;;;3.50;3.28;;;;;;;;;;5034825;28;20057;-93
2022/12/12 08:36:19;;;;;;;4.93;3.28;;;;;;;;;;5035246;28;20053;-93
2022/12/12 08:38:46;;;;;;;6.28;5.25;;;;;;;;;;5035066;28;20054;-93
2022/12/12 08:41:13;;;;;;;4.72;4.32;;;;;;;;;;5035057;28;20049;-93
2022/12/12 08:43:41;;;;;;;9.35;7.40;;;;;;;;;;5035092;28;20103;-93
2022/12/12 08:46:09;;;;;;;4.60;4.30;;;;;;;;;;5034945;28;20049;-93
2022/12/12 08:48:35;;;;;;;3.33;3.03;;;;;;;;;;5035261;28;20083;-93
2022/12/12 08:51:02;;;;;;;5.15;4.78;;;;;;;;;;5034900;28;20107;-94
2022/12/12 08:53:29;;;;;;;4.97;4.45;;;;;;;;;;5034683;28;20804;-92
2022/12/12 08:55:55;;;;;;;5.53;4.43;;;;;;;;;;5034710;28;20088;-92
2022/12/12 08:58:22;;;;;;;6.32;5.38;;;;;;;;;;5034792;28;20045;-92
2022/12/12 09:00:48;;;;;;;5.22;4.93;;;;;;;;;;5034394;28;20050;-92
2022/12/12 09:03:16;;;;;;;10.38;7.90;;;;;;;;;;5034605;28;20123;-93
2022/12/12 09:05:43;;;;;;;4.30;3.90;;;;;;;;;;5034459;28;20107;-92
2022/12/12 09:08:10;;;;;;;7.53;5.47;;;;;;;;;;5034674;28;20049;-93
2022/12/12 09:10:36;;;;;;;5.88;5.22;;;;;;;;;;5034239;28;20522;-93
2022/12/12 09:13:04;;;;;;;6.65;6.10;;;;;;;;;;5034120;28;20095;-93
2022/12/12 09:15:30;;;;;;;7.20;5.85;;;;;;;;;;5033981;28;20171;-93
2022/12/12 09:17:57;;;;;;;3.60;3.38;;;;;;;;;;5038899;28;20091;-93
2022/12/12 09:20:24;;;;;;;5.45;4.97;;;;;;;;;;5054115;28;20099;-94
2022/12/12 09:22:51;;;;;;;8.82;6.00;;;;;;;;;;5054043;28;20045;-93
2022/12/12 09:25:18;;;;;;;6.03;5.55;;;;;;;;;;5054248;28;20049;-93
2022/12/12 09:27:44;;;;;;;6.45;5.35;;;;;;;;;;5053953;28;20041;-94
2022/12/12 09:30:11;;;;;;;4.50;4.05;;;;;;;;;;5053701;28;20056;-93
2022/12/12 09:32:37;;;;;;;12.82;6.78;;;;;;;;;;5053450;28;20053;-93
2022/12/12 09:35:04;;;;;;;5.22;4.78;;;;;;;;;;5053888;28;20490;-93
2022/12/12 09:37:32;;;;;;;7.93;6.28;;;;;;;;;;5053588;28;20502;-93
2022/12/12 09:39:59;;;;;;;6.28;5.72;;;;;;;;;;5034089;28;20808;-93
2022/12/12 09:42:26;;;;;;;4.30;4.00;;;;;;;;;;5033972;28;20111;-93
2022/12/12 09:44:55;;;;;;;5.47;4.68;;;;;;;;;;5033840;28;20107;-93
2022/12/12 09:47:24;;;;;;;5.60;5.20;;;;;;;;;;5033336;28;20454;-93
2022/12/12 09:49:53;;;;;;;2.17;2.08;;;;;;;;;;5033842;28;20053;-94
2022/12/12 09:52:25;;;;;;;2.22;2.15;;;;;;;;;;5033830;28;20050;-93
2022/12/12 09:54:53;;;;;;;2.55;2.35;;;;;;;;;;5033350;28;20049;-93
2022/12/12 09:57:23;;;;;;;2.13;2.03;;;;;;;;;;5033831;28;20049;-94
2022/12/12 09:59:55;;;;;;;3.17;3.05;;;;;;;;;;5033677;28;20111;-94
2022/12/12 10:02:42;;;;;;;2.47;2.38;;;;;;;;;;5033456;28;20049;-94
2022/12/12 10:05:15;;;;;;;3.72;3.53;;;;;;;;;;5029959;28;20061;-95
2022/12/12 10:07:46;;;;;;;1.67;1.63;;;;;;;;;;5033485;28;20092;-94
2022/12/12 10:10:18;;;;;;;1.73;1.65;;;;;;;;;;5033299;28;20103;-94
2022/12/12 10:12:45;;;;;;;2.17;2.08;;;;;;;;;;5038937;28;20049;-91
2022/12/12 10:15:20;;;;;;;2.05;1.88;;;;;;;;;;5042900;28;20045;-92
2022/12/12 10:17:47;;;;;;;1.63;1.55;;;;;;;;;;5033654;28;20127;-92
2022/12/12 10:20:16;;;;;;;2.95;2.83;;;;;;;;;;5045539;28;20056;-93
2022/12/12 10:22:46;;;;;;;2.40;2.30;;;;;;;;;;5043094;28;20056;-92
2022/12/12 10:25:19;;;;;;;2.22;2.13;;;;;;;;;;5052142;28;20052;-93
2022/12/12 10:27:45;;;;;;;6.40;5.25;;;;;;;;;;5055342;28;20056;-93
2022/12/12 10:30:16;;;;;;;3.70;3.50;;;;;;;;;;5052627;28;20110;-93
2022/12/12 10:32:49;;;;;;;3.25;2.67;;;;;;;;;;5052392;28;20045;-92
2022/12/12 10:35:21;;;;;;;3.50;3.38;;;;;;;;;;5051725;28;20057;-93
2022/12/12 10:37:53;;;;;;;4.55;4.35;;;;;;;;;;5052456;28;20052;-93
2022/12/12 10:40:31;;;;;;;2.42;2.30;;;;;;;;;;5051920;28;20118;-93
2022/12/12 10:43:00;;;;;;;4.45;2.85;;;;;;;;;;5051575;28;20049;-92
2022/12/12 10:45:32;;;;;;;3.75;3.55;;;;;;;;;;5034703;28;20100;-91
2022/12/12 10:47:58;;;;;;;3.33;3.20;;;;;;;;;;5035164;28;20062;-92
2022/12/12 10:50:27;;;;;;;2.28;2.17;;;;;;;;;;5035919;28;20049;-93
2022/12/12 10:52:53;;;;;;;3.60;3.47;;;;;;;;;;5035927;28;20095;-93
2022/12/12 10:55:22;;;;;;;3.88;3.67;;;;;;;;;;5036531;28;20057;-93
2022/12/12 10:58:00;;;;;;;2.38;2.28;;;;;;;;;;5036420;28;20442;-94
2022/12/12 11:00:29;;;;;;;2.63;2.50;;;;;;;;;;5055758;28;20099;-93
2022/12/12 11:02:56;;;;;;;3.30;3.20;;;;;;;;;;5055396;28;20053;-91
2022/12/12 11:05:24;;;;;;;2.42;2.30;;;;;;;;;;5056357;28;20098;-94
2022/12/12 11:08:01;;;;;;;1.80;1.70;;;;;;;;;;5056242;28;20473;-93
2022/12/12 11:10:29;;;;;;;3.03;2.92;;;;;;;;;;5056104;28;20102;-94
2022/12/12 11:12:59;;;;;;;1.95;1.85;;;;;;;;;;5056037;28;20071;-93
2022/12/12 11:15:31;;;;;;;2.83;2.03;;;;;;;;;;5065128;28;20052;-94
2022/12/12 11:17:58;;;;;;;2.53;2.42;;;;;;;;;;5076266;28;20049;-93
2022/12/12 11:20:24;;;;;;;2.90;2.80;;;;;;;;;;5038615;28;20103;-93
2022/12/12 11:22:52;;;;;;;3.65;3.45;;;;;;;;;;5035770;28;20124;-93
2022/12/12 11:25:27;;;;;;;4.10;3.88;;;;;;;;;;5052786;28;20056;-93
2022/12/12 11:27:54;;;;;;;3.50;3.30;;;;;;;;;;5055843;28;20084;-92
2022/12/12 11:30:28;;;;;;;2.60;2.47;;;;;;;;;;5055473;28;20099;-93
2022/12/12 11:32:55;;;;;;;2.55;2.38;;;;;;;;;;5055481;28;20102;-92
2022/12/12 11:35:23;;;;;;;4.13;3.75;;;;;;;;;;5038867;28;20430;-93
2022/12/12 11:37:50;;;;;;;2.33;2.22;;;;;;;;;;5035232;28;20061;-92
2022/12/12 11:40:21;;;;;;;3.83;2.20;;;;;;;;;;5035432;28;20049;-92
2022/12/12 11:42:49;;;;;;;3.30;3.13;;;;;;;;;;5035596;28;20045;-93
2022/12/12 11:45:22;;;;;;;2.25;2.15;;;;;;;;;;5050629;28;20057;-92
2022/12/12 11:47:50;;;;;;;3.25;3.15;;;;;;;;;;5051041;28;20107;-92
2022/12/12 11:50:19;;;;;;;2.58;2.38;;;;;;;;;;5038610;28;20512;-92
2022/12/12 11:52:46;;;;;;;1.67;1.63;;;;;;;;;;5035152;28;20721;-93
2022/12/12 11:55:13;;;;;;;2.97;2.88;;;;;;;;;;5049931;28;20734;-93
2022/12/12 11:57:52;;;;;;;4.15;3.95;;;;;;;;;;5055513;28;20107;-92
2022/12/12 12:00:20;;;;;;;3.55;2.88;;;;;;;;;;5046330;28;20536;-93
2022/12/12 12:02:59;;;;;;;3.45;3.33;;;;;;;;;;5054314;28;20044;-91
2022/12/12 12:05:30;;;;;;;2.72;2.63;;;;;;;;;;5054453;28;20075;-91
2022/12/12 12:08:02;;;;;;;2.38;2.28;;;;;;;;;;5054813;28;20053;-90
2022/12/12 12:10:39;;;;;;;3.90;3.17;;;;;;;;;;5054432;28;20545;-90
2022/12/12 12:13:13;;;;;;;2.05;1.95;;;;;;;;;;5054539;28;20107;-91
2022/12/12 12:15:44;;;;;;;7.47;2.30;;;;;;;;;;5036997;28;20118;-90
2022/12/12 12:18:22;;;;;;;3.92;3.80;;;;;;;;;;5048902;28;20084;-91
2022/12/12 12:21:15;;;;;;;2.28;2.17;;;;;;;;;;5056222;28;20057;-91
2022/12/12 12:23:46;;;;;;;3.35;3.15;;;;;;;;;;5053619;28;20049;-91
2022/12/12 12:26:14;;;;;;;2.78;2.67;;;;;;;;;;5068842;28;20069;-92
2022/12/12 12:29:00;;;;;;;4.18;3.97;;;;;;;;;;5074088;28;20838;-89
2022/12/12 12:31:29;;;;;;;2.72;2.63;;;;;;;;;;5045102;28;20049;-90
2022/12/12 12:34:02;;;;;;;4.43;4.22;;;;;;;;;;5067877;28;20474;-91
2022/12/12 12:36:34;;;;;;;2.22;2.13;;;;;;;;;;5040499;28;20101;-92
2022/12/12 12:39:06;;;;;;;2.65;2.45;;;;;;;;;;5074101;28;20056;-91
2022/12/12 12:41:43;;;;;;;2.00;1.92;;;;;;;;;;5074341;28;20149;-92
2022/12/12 12:44:19;;;;;;;2.53;2.42;;;;;;;;;;5074267;28;20056;-91
2022/12/12 12:46:49;;;;;;;3.22;2.83;;;;;;;;;;5074088;28;20114;-90
2022/12/12 12:49:19;;;;;;;2.30;2.20;;;;;;;;;;5073982;28;20048;-90
2022/12/12 12:51:47;;;;;;;5.60;5.40;;;;;;;;;;5073901;28;20048;-90
2022/12/12 12:54:15;;;;;;;3.30;3.10;;;;;;;;;;5073903;28;20052;-91
2022/12/12 12:56:46;;;;;;;4.43;4.05;;;;;;;;;;5058711;28;20053;-91
2022/12/12 12:59:17;;;;;;;2.05;1.95;;;;;;;;;;5059724;28;20490;-91
2022/12/12 13:01:45;;;;;;;2.80;2.70;;;;;;;;;;5048467;28;20450;-91
2022/12/12 13:04:13;;;;;;;2.53;2.42;;;;;;;;;;5049970;28;20450;-91
2022/12/12 13:06:44;;;;;;;3.67;3.45;;;;;;;;;;5033495;28;20119;-91
2022/12/12 13:09:18;;;;;;;4.28;4.00;;;;;;;;;;5033577;28;20050;-90
2022/12/12 13:11:47;;;;;;;2.08;1.95;;;;;;;;;;5033868;28;20053;-91
2022/12/12 13:14:15;;;;;;;3.97;3.78;;;;;;;;;;5033305;28;20103;-91
2022/12/12 13:16:43;;;;;;;2.78;2.67;;;;;;;;;;5033574;28;20075;-90
2022/12/12 13:19:11;;;;;;;3.05;2.95;;;;;;;;;;5033903;28;20053;-90
2022/12/12 13:21:40;;;;;;;2.20;2.00;;;;;;;;;;5044928;28;20045;-91
2022/12/12 13:24:13;;;;;;;2.78;2.67;;;;;;;;;;5052095;28;20052;-90
2022/12/12 13:26:42;;;;;;;3.97;3.83;;;;;;;;;;5053038;28;20048;-91
2022/12/12 13:29:17;;;;;;;3.08;2.97;;;;;;;;;;5052610;28;20060;-91
2022/12/12 13:31:59;;;;;;;2.53;2.42;;;;;;;;;;5052967;28;20099;-90
2022/12/12 13:34:26;;;;;;;4.18;3.97;;;;;;;;;;5052509;28;20060;-90
2022/12/12 13:36:53;;;;;;;1.90;1.80;;;;;;;;;;5033204;28;20045;-91
2022/12/12 13:39:27;;;;;;;2.15;2.05;;;;;;;;;;5041689;28;20048;-93
2022/12/12 13:41:55;;;;;;;2.28;2.05;;;;;;;;;;5073794;28;20049;-92
2022/12/12 13:44:38;;;;;;;2.28;2.17;;;;;;;;;;5060834;28;20552;-91
2022/12/12 13:47:10;;;;;;;2.83;2.72;;;;;;;;;;5067814;28;20044;-92
2022/12/12 13:49:45;;;;;;;3.22;3.13;;;;;;;;;;5044755;28;20044;-90
2022/12/12 13:52:22;;;;;;;2.33;2.22;;;;;;;;;;5052629;28;20053;-91
2022/12/12 13:54:51;;;;;;;1.83;1.73;;;;;;;;;;5052547;28;20538;-90
2022/12/12 13:57:22;;;;;;;2.17;2.08;;;;;;;;;;5068636;28;20059;-91
2022/12/12 14:00:07;;;;;;;3.40;3.20;;;;;;;;;;5054819;28;20490;-92
2022/12/12 14:02:35;;;;;;;1.30;1.27;;;;;;;;;;5049972;28;20073;-92
2022/12/12 14:05:07;;;;;;;3.40;3.28;;;;;;;;;;5037958;28;20053;-94
2022/12/12 14:07:35;;;;;;;3.58;3.38;;;;;;;;;;5038175;28;20056;-92
2022/12/12 14:10:15;;;;;;;1.98;1.88;;;;;;;;;;5036830;28;20099;-95
2022/12/12 14:12:42;;;;;;;2.92;2.80;;;;;;;;;;5037361;28;20045;-94
2022/12/12 14:15:19;;;;;;;4.25;3.95;;;;;;;;;;5053597;28;20487;-94
2022/12/12 14:17:52;;;;;;;3.72;3.55;;;;;;;;;;5054456;28;20049;-91
2022/12/12 14:20:24;;;;;;;2.92;2.65;;;;;;;;;;5053599;28;20053;-94
2022/12/12 14:23:07;;;;;;;1.98;1.88;;;;;;;;;;5068798;28;20052;-90
2022/12/12 14:25:36;;;;;;;2.92;1.50;;;;;;;;;;5079650;28;20537;-91
2022/12/12 14:28:03;;;;;;;2.25;2.15;;;;;;;;;;5056729;28;20494;-91
2022/12/12 14:30:43;;;;;;;3.03;2.92;;;;;;;;;;5052664;28;20052;-94
2022/12/12 14:33:19;;;;;;;4.38;4.20;;;;;;;;;;5053053;28;20055;-95
2022/12/12 14:35:49;;;;;;;2.15;2.05;;;;;;;;;;5051859;28;20118;-92
2022/12/12 14:38:21;;;;;;;4.05;1.85;;;;;;;;;;5053066;28;20061;-93
2022/12/12 14:40:49;;;;;;;1.88;1.77;;;;;;;;;;5053603;28;20456;-92
2022/12/12 14:43:17;;;;;;;2.15;2.05;;;;;;;;;;5052163;28;20137;-90
2022/12/12 14:45:52;;;;;;;3.42;3.13;;;;;;;;;;5051463;28;20099;-92
2022/12/12 14:48:21;;;;;;;2.95;2.85;;;;;;;;;;5068833;28;20050;-93
2022/12/12 14:50:59;;;;;;;1.70;1.60;;;;;;;;;;5058730;28;20548;-91
2022/12/12 14:53:28;;;;;;;3.13;3.03;;;;;;;;;;5052443;28;20053;-92
2022/12/12 14:55:57;;;;;;;1.67;1.65;;;;;;;;;;5052576;28;20114;-89
2022/12/12 14:58:26;;;;;;;2.15;2.05;;;;;;;;;;5052559;28;20107;-94
2022/12/12 15:00:54;;;;;;;2.38;2.28;;;;;;;;;;5053045;28;20124;-93
2022/12/12 15:03:29;;;;;;;2.40;2.20;;;;;;;;;;5042849;28;20049;-93
2022/12/12 15:06:14;;;;;;;1.83;1.77;;;;;;;;;;5033120;28;20527;-95
2022/12/12 15:08:41;;;;;;;3.35;3.25;;;;;;;;;;5033331;28;20049;-94
2022/12/12 15:11:12;;;;;;;1.63;1.58;;;;;;;;;;5033416;28;20140;-92